KAC107 OKKK-OEJN
Flight info
| Callsign | KAC107 |
|---|---|
| Flight time | 0h 54m |
| Altitude | 38000 |
| Route | DEKOB1K DEKOB P517 KSB B417 GAS G674 PMA B544 RBG/N0491F390 B544 NOMDA NOMDA2N |
| Aircraft | B77W/H-SDE1E2E3FGHIJ2J3J4J5M1RWXY/LB1D1 |
Departure
| Time | 2026-05-05 08:35 |
|---|---|
| Airport | Kuwait International Airport (OKKK) |
Arrival
| Time | 2026-05-05 09:29 |
|---|---|
| Airport | King Abdulaziz International Airport (OEJN) |
| Time | Latitude | Longitude | Altitude | Speed | Heading |
|---|---|---|---|---|---|
| 2026-05-05 07:58 | 29.25045 | 47.96015 | 172 ft | 0 kts | 67° |
| 2026-05-05 08:24 | 29.25045 | 47.96014 | 172 ft | 1 kts | 67° |
| 2026-05-05 08:24 | 29.25036 | 47.95990 | 172 ft | 3 kts | 67° |
| 2026-05-05 08:24 | 29.25028 | 47.95967 | 171 ft | 4 kts | 83° |
| 2026-05-05 08:24 | 29.25030 | 47.95940 | 171 ft | 4 kts | 109° |
| 2026-05-05 08:25 | 29.25046 | 47.95922 | 171 ft | 4 kts | 155° |
| 2026-05-05 08:25 | 29.25067 | 47.95911 | 171 ft | 4 kts | 155° |
| 2026-05-05 08:25 | 29.25091 | 47.95898 | 171 ft | 2 kts | 155° |
| 2026-05-05 08:25 | 29.25093 | 47.95897 | 171 ft | 1 kts | 155° |
| 2026-05-05 08:31 | 29.25091 | 47.95898 | 171 ft | 1 kts | 154° |
| 2026-05-05 08:31 | 29.25084 | 47.95902 | 171 ft | 2 kts | 154° |
| 2026-05-05 08:31 | 29.25057 | 47.95916 | 171 ft | 6 kts | 155° |
| 2026-05-05 08:31 | 29.25008 | 47.95935 | 171 ft | 9 kts | 173° |
| 2026-05-05 08:32 | 29.24938 | 47.95939 | 170 ft | 11 kts | 165° |
| 2026-05-05 08:32 | 29.24857 | 47.95976 | 170 ft | 14 kts | 155° |
| 2026-05-05 08:32 | 29.24764 | 47.96024 | 170 ft | 16 kts | 156° |
| 2026-05-05 08:32 | 29.24660 | 47.96080 | 170 ft | 17 kts | 155° |
| 2026-05-05 08:33 | 29.24547 | 47.96140 | 170 ft | 19 kts | 155° |
| 2026-05-05 08:33 | 29.24420 | 47.96205 | 170 ft | 21 kts | 154° |
| 2026-05-05 08:33 | 29.24284 | 47.96278 | 170 ft | 22 kts | 155° |
| 2026-05-05 08:33 | 29.24166 | 47.96282 | 170 ft | 18 kts | 225° |
| 2026-05-05 08:34 | 29.24104 | 47.96207 | 175 ft | 10 kts | 204° |
| 2026-05-05 08:34 | 29.24036 | 47.96175 | 178 ft | 11 kts | 193° |
| 2026-05-05 08:34 | 29.23963 | 47.96200 | 178 ft | 11 kts | 156° |
| 2026-05-05 08:34 | 29.23806 | 47.96284 | 195 ft | 67 kts | 155° |
| 2026-05-05 08:35 | 29.23006 | 47.96720 | 206 ft | 189 kts | 153° |
| 2026-05-05 08:35 | 29.21586 | 47.97447 | 992 ft | 244 kts | 155° |
| 2026-05-05 08:35 | 29.20002 | 47.98247 | 2404 ft | 250 kts | 154° |
| 2026-05-05 08:35 | 29.16579 | 48.00115 | 4322 ft | 268 kts | 153° |
| 2026-05-05 08:36 | 29.09586 | 48.03816 | 5650 ft | 279 kts | 157° |
| 2026-05-05 08:36 | 29.01852 | 48.03288 | 6980 ft | 292 kts | 186° |
| 2026-05-05 08:36 | 28.98357 | 48.02750 | 8605 ft | 299 kts | 186° |
| 2026-05-05 08:36 | 28.93139 | 48.01954 | 9686 ft | 311 kts | 186° |
| 2026-05-05 08:37 | 28.86369 | 48.00920 | 9994 ft | 303 kts | 186° |
| 2026-05-05 08:37 | 28.80866 | 48.00088 | 10025 ft | 303 kts | 186° |
| 2026-05-05 08:37 | 28.78710 | 47.99762 | 10201 ft | 326 kts | 186° |
| 2026-05-05 08:37 | 28.76352 | 47.99406 | 10439 ft | 356 kts | 186° |
| 2026-05-05 08:38 | 28.73480 | 47.98972 | 10870 ft | 381 kts | 187° |
| 2026-05-05 08:38 | 28.67673 | 47.97010 | 12132 ft | 393 kts | 216° |
| 2026-05-05 08:38 | 28.63351 | 47.93449 | 13215 ft | 415 kts | 217° |
| 2026-05-05 08:38 | 28.61116 | 47.91250 | 13084 ft | 443 kts | 223° |
| 2026-05-05 08:39 | 28.58724 | 47.89079 | 13553 ft | 439 kts | 208° |
| 2026-05-05 08:39 | 28.56052 | 47.87471 | 14119 ft | 437 kts | 212° |
| 2026-05-05 08:39 | 28.53785 | 47.85190 | 14403 ft | 445 kts | 229° |
| 2026-05-05 08:39 | 28.52024 | 47.82124 | 13804 ft | 482 kts | 243° |
| 2026-05-05 08:40 | 28.50819 | 47.78517 | 14008 ft | 487 kts | 251° |
| 2026-05-05 08:40 | 28.49401 | 47.75115 | 14966 ft | 474 kts | 235° |
| 2026-05-05 08:40 | 28.47191 | 47.72389 | 16021 ft | 467 kts | 218° |
| 2026-05-05 08:40 | 28.44505 | 47.70433 | 16983 ft | 452 kts | 210° |
| 2026-05-05 08:41 | 28.41894 | 47.68241 | 16670 ft | 479 kts | 220° |
| 2026-05-05 08:41 | 28.39268 | 47.65969 | 16938 ft | 474 kts | 207° |
| 2026-05-05 08:41 | 28.36279 | 47.64570 | 17894 ft | 454 kts | 200° |
| 2026-05-05 08:41 | 28.33438 | 47.63003 | 18764 ft | 453 kts | 212° |
| 2026-05-05 08:42 | 28.30974 | 47.60843 | 19972 ft | 441 kts | 221° |
| 2026-05-05 08:42 | 28.28815 | 47.58451 | 20834 ft | 427 kts | 225° |
| 2026-05-05 08:42 | 28.23714 | 47.52458 | 22384 ft | 418 kts | 224° |
| 2026-05-05 08:42 | 28.18842 | 47.40590 | 24983 ft | 430 kts | 260° |
| 2026-05-05 08:43 | 28.16769 | 47.26998 | 27678 ft | 445 kts | 259° |
| 2026-05-05 08:43 | 28.15939 | 47.21844 | 28647 ft | 449 kts | 259° |
| 2026-05-05 08:43 | 28.15362 | 47.18310 | 28828 ft | 464 kts | 259° |
| 2026-05-05 08:43 | 28.14762 | 47.14660 | 28930 ft | 478 kts | 259° |
| 2026-05-05 08:44 | 28.14145 | 47.10905 | 29016 ft | 491 kts | 259° |
| 2026-05-05 08:44 | 28.13446 | 47.06660 | 29097 ft | 503 kts | 259° |
| 2026-05-05 08:44 | 28.11056 | 46.92171 | 29881 ft | 520 kts | 259° |
| 2026-05-05 08:44 | 28.08392 | 46.76068 | 31289 ft | 519 kts | 259° |
| 2026-05-05 08:45 | 28.05743 | 46.60087 | 32833 ft | 514 kts | 259° |
| 2026-05-05 08:45 | 28.03084 | 46.44238 | 34312 ft | 510 kts | 259° |
| 2026-05-05 08:45 | 28.00431 | 46.28472 | 35674 ft | 508 kts | 259° |
| 2026-05-05 08:45 | 27.98780 | 46.18718 | 36479 ft | 506 kts | 259° |
| 2026-05-05 08:46 | 27.98119 | 46.14801 | 36760 ft | 506 kts | 259° |
| 2026-05-05 08:46 | 27.97462 | 46.10892 | 37024 ft | 507 kts | 259° |
| 2026-05-05 08:46 | 27.96806 | 46.06978 | 37288 ft | 507 kts | 259° |
| 2026-05-05 08:46 | 27.96149 | 46.03060 | 37554 ft | 506 kts | 259° |
| 2026-05-05 08:47 | 27.95528 | 45.99363 | 37733 ft | 508 kts | 259° |
| 2026-05-05 08:47 | 27.90715 | 45.70912 | 37825 ft | 516 kts | 259° |
| 2026-05-05 08:47 | 27.86902 | 45.55498 | 37772 ft | 506 kts | 238° |
| 2026-05-05 08:48 | 27.77283 | 45.44232 | 37811 ft | 497 kts | 221° |
| 2026-05-05 08:48 | 27.56689 | 45.23011 | 37845 ft | 509 kts | 222° |
| 2026-05-05 08:49 | 27.36772 | 44.99981 | 37776 ft | 510 kts | 225° |
| 2026-05-05 08:49 | 27.17740 | 44.78017 | 37777 ft | 497 kts | 225° |
| 2026-05-05 08:50 | 26.98205 | 44.55538 | 37850 ft | 512 kts | 225° |
| 2026-05-05 08:50 | 26.78185 | 44.32698 | 37770 ft | 507 kts | 225° |
| 2026-05-05 08:51 | 26.58785 | 44.10704 | 37800 ft | 498 kts | 225° |
| 2026-05-05 08:51 | 26.39400 | 43.88807 | 37850 ft | 514 kts | 225° |
| 2026-05-05 08:52 | 26.26384 | 43.70002 | 37783 ft | 500 kts | 245° |
| 2026-05-05 08:52 | 26.14949 | 43.41896 | 37845 ft | 504 kts | 245° |
| 2026-05-05 08:53 | 26.03001 | 43.13022 | 37823 ft | 516 kts | 245° |
| 2026-05-05 08:53 | 25.91380 | 42.85152 | 37759 ft | 498 kts | 245° |
| 2026-05-05 08:54 | 25.79703 | 42.57288 | 37847 ft | 508 kts | 244° |
| 2026-05-05 08:54 | 25.67571 | 42.28514 | 37800 ft | 513 kts | 244° |
| 2026-05-05 08:55 | 25.55590 | 42.00423 | 37768 ft | 497 kts | 244° |
| 2026-05-05 08:55 | 25.43866 | 41.73082 | 37851 ft | 511 kts | 244° |
| 2026-05-05 08:56 | 25.31525 | 41.44484 | 37779 ft | 511 kts | 244° |
| 2026-05-05 08:56 | 25.19508 | 41.16814 | 37781 ft | 498 kts | 244° |
| 2026-05-05 08:57 | 25.07565 | 40.89479 | 37850 ft | 514 kts | 244° |
| 2026-05-05 08:57 | 24.95067 | 40.61111 | 37767 ft | 507 kts | 244° |
| 2026-05-05 08:58 | 24.82860 | 40.33559 | 37808 ft | 499 kts | 243° |
| 2026-05-05 08:58 | 24.70407 | 40.05576 | 37851 ft | 516 kts | 243° |
| 2026-05-05 08:59 | 24.58165 | 39.78220 | 37761 ft | 503 kts | 243° |
| 2026-05-05 08:59 | 24.54671 | 39.72237 | 37754 ft | 498 kts | 223° |
| 2026-05-05 08:59 | 24.48137 | 39.67901 | 37803 ft | 501 kts | 198° |
| 2026-05-05 08:59 | 24.34648 | 39.63440 | 37861 ft | 512 kts | 196° |
| 2026-05-05 09:00 | 24.20966 | 39.58709 | 37813 ft | 515 kts | 197° |
| 2026-05-05 09:00 | 23.94180 | 39.49345 | 37753 ft | 496 kts | 197° |
| 2026-05-05 09:01 | 23.77590 | 39.43612 | 37806 ft | 497 kts | 199° |
| 2026-05-05 09:01 | 23.59569 | 39.37412 | 37853 ft | 514 kts | 197° |
| 2026-05-05 09:01 | 23.50525 | 39.34274 | 37829 ft | 516 kts | 197° |
| 2026-05-05 09:01 | 23.32581 | 39.28061 | 37757 ft | 503 kts | 197° |
| 2026-05-05 09:02 | 23.26097 | 39.25825 | 37764 ft | 498 kts | 197° |
| 2026-05-05 09:02 | 23.17874 | 39.22992 | 37820 ft | 500 kts | 197° |
| 2026-05-05 09:03 | 23.07218 | 39.19324 | 37532 ft | 497 kts | 197° |
| 2026-05-05 09:03 | 23.01208 | 39.17257 | 36577 ft | 489 kts | 197° |
| 2026-05-05 09:03 | 22.73686 | 39.07854 | 33092 ft | 453 kts | 195° |
| 2026-05-05 09:03 | 22.40030 | 39.01612 | 23523 ft | 449 kts | 155° |
| 2026-05-05 09:04 | 22.37526 | 39.03445 | 23429 ft | 429 kts | 133° |
| 2026-05-05 09:04 | 22.35899 | 39.06064 | 23202 ft | 415 kts | 110° |
| 2026-05-05 09:04 | 22.35388 | 39.09066 | 22978 ft | 403 kts | 87° |
| 2026-05-05 09:04 | 22.36044 | 39.11945 | 22764 ft | 392 kts | 62° |
| 2026-05-05 09:05 | 22.37720 | 39.14193 | 22536 ft | 385 kts | 37° |
| 2026-05-05 09:05 | 22.40065 | 39.15616 | 22380 ft | 390 kts | 23° |
| 2026-05-05 09:05 | 22.42528 | 39.16819 | 22172 ft | 387 kts | 27° |
| 2026-05-05 09:05 | 22.44878 | 39.18211 | 21955 ft | 384 kts | 36° |
| 2026-05-05 09:06 | 22.46762 | 39.20249 | 21738 ft | 382 kts | 56° |
| 2026-05-05 09:06 | 22.47878 | 39.22804 | 21537 ft | 372 kts | 75° |
| 2026-05-05 09:06 | 22.48241 | 39.25526 | 21328 ft | 362 kts | 89° |
| 2026-05-05 09:06 | 22.47960 | 39.28188 | 21101 ft | 354 kts | 106° |
| 2026-05-05 09:07 | 22.47143 | 39.30649 | 20934 ft | 354 kts | 111° |
| 2026-05-05 09:07 | 22.45942 | 39.32979 | 20717 ft | 357 kts | 124° |
| 2026-05-05 09:07 | 22.44379 | 39.35028 | 20509 ft | 354 kts | 140° |
| 2026-05-05 09:07 | 22.42245 | 39.36311 | 20382 ft | 350 kts | 162° |
| 2026-05-05 09:08 | 22.39858 | 39.36709 | 20407 ft | 348 kts | 181° |
| 2026-05-05 09:08 | 22.37467 | 39.36288 | 20420 ft | 351 kts | 197° |
| 2026-05-05 09:08 | 22.35284 | 39.35102 | 20373 ft | 354 kts | 216° |
| 2026-05-05 09:08 | 22.33362 | 39.33380 | 19980 ft | 361 kts | 220° |
| 2026-05-05 09:09 | 22.31490 | 39.31570 | 19560 ft | 361 kts | 221° |
| 2026-05-05 09:09 | 22.29629 | 39.29747 | 19148 ft | 360 kts | 221° |
| 2026-05-05 09:09 | 22.27772 | 39.27945 | 18734 ft | 358 kts | 221° |
| 2026-05-05 09:09 | 22.25920 | 39.26168 | 18320 ft | 356 kts | 220° |
| 2026-05-05 09:10 | 22.24067 | 39.24407 | 17908 ft | 354 kts | 220° |
| 2026-05-05 09:10 | 22.22240 | 39.22681 | 17515 ft | 352 kts | 220° |
| 2026-05-05 09:10 | 22.20398 | 39.20945 | 17109 ft | 350 kts | 220° |
| 2026-05-05 09:10 | 22.18564 | 39.19219 | 16696 ft | 349 kts | 220° |
| 2026-05-05 09:11 | 22.16741 | 39.17505 | 16297 ft | 347 kts | 220° |
| 2026-05-05 09:11 | 22.14924 | 39.15798 | 15887 ft | 345 kts | 220° |
| 2026-05-05 09:11 | 22.13114 | 39.14101 | 15500 ft | 343 kts | 220° |
| 2026-05-05 09:11 | 22.11256 | 39.12529 | 15085 ft | 337 kts | 207° |
| 2026-05-05 09:12 | 22.09055 | 39.11765 | 14688 ft | 332 kts | 185° |
| 2026-05-05 09:12 | 22.06761 | 39.11880 | 14224 ft | 331 kts | 165° |
| 2026-05-05 09:12 | 22.04577 | 39.12632 | 13767 ft | 329 kts | 159° |
| 2026-05-05 09:12 | 22.02436 | 39.13504 | 13339 ft | 328 kts | 158° |
| 2026-05-05 09:13 | 22.00337 | 39.14375 | 12953 ft | 327 kts | 158° |
| 2026-05-05 09:13 | 21.98214 | 39.15249 | 12492 ft | 328 kts | 158° |
| 2026-05-05 09:13 | 21.96082 | 39.16114 | 12103 ft | 326 kts | 158° |
| 2026-05-05 09:13 | 21.93954 | 39.16968 | 11694 ft | 324 kts | 159° |
| 2026-05-05 09:14 | 21.91882 | 39.17792 | 11245 ft | 325 kts | 159° |
| 2026-05-05 09:14 | 21.89761 | 39.18633 | 10922 ft | 321 kts | 159° |
| 2026-05-05 09:14 | 21.87722 | 39.19438 | 10871 ft | 309 kts | 159° |
| 2026-05-05 09:14 | 21.85739 | 39.20221 | 10789 ft | 297 kts | 159° |
| 2026-05-05 09:15 | 21.83823 | 39.20979 | 10624 ft | 289 kts | 159° |
| 2026-05-05 09:15 | 21.81941 | 39.21723 | 10343 ft | 287 kts | 159° |
| 2026-05-05 09:15 | 21.80067 | 39.22460 | 9995 ft | 286 kts | 159° |
| 2026-05-05 09:15 | 21.78199 | 39.23193 | 9657 ft | 285 kts | 159° |
| 2026-05-05 09:16 | 21.76362 | 39.23913 | 9344 ft | 284 kts | 159° |
| 2026-05-05 09:16 | 21.74510 | 39.24639 | 9030 ft | 282 kts | 159° |
| 2026-05-05 09:16 | 21.72669 | 39.25362 | 8708 ft | 281 kts | 159° |
| 2026-05-05 09:16 | 21.70836 | 39.26083 | 8390 ft | 280 kts | 158° |
| 2026-05-05 09:17 | 21.69013 | 39.26805 | 8074 ft | 278 kts | 158° |
| 2026-05-05 09:17 | 21.67197 | 39.27524 | 7743 ft | 277 kts | 158° |
| 2026-05-05 09:17 | 21.65392 | 39.28237 | 7438 ft | 276 kts | 158° |
| 2026-05-05 09:17 | 21.63598 | 39.28946 | 7123 ft | 274 kts | 158° |
| 2026-05-05 09:18 | 21.61812 | 39.29649 | 6778 ft | 273 kts | 159° |
| 2026-05-05 09:18 | 21.60031 | 39.30347 | 6443 ft | 272 kts | 159° |
| 2026-05-05 09:18 | 21.58258 | 39.31041 | 6132 ft | 270 kts | 159° |
| 2026-05-05 09:18 | 21.56494 | 39.31732 | 5821 ft | 269 kts | 159° |
| 2026-05-05 09:19 | 21.54740 | 39.32419 | 5489 ft | 268 kts | 159° |
| 2026-05-05 09:19 | 21.53014 | 39.33095 | 5193 ft | 266 kts | 159° |
| 2026-05-05 09:19 | 21.51272 | 39.33777 | 4868 ft | 265 kts | 159° |
| 2026-05-05 09:19 | 21.49539 | 39.34456 | 4555 ft | 264 kts | 159° |
| 2026-05-05 09:20 | 21.47819 | 39.35129 | 4227 ft | 263 kts | 159° |
| 2026-05-05 09:20 | 21.46105 | 39.35801 | 3900 ft | 261 kts | 159° |
| 2026-05-05 09:20 | 21.44398 | 39.36471 | 3573 ft | 260 kts | 159° |
| 2026-05-05 09:20 | 21.42700 | 39.37134 | 3264 ft | 259 kts | 159° |
| 2026-05-05 09:21 | 21.41013 | 39.37802 | 3015 ft | 256 kts | 159° |
| 2026-05-05 09:21 | 21.39368 | 39.38423 | 2916 ft | 246 kts | 165° |
| 2026-05-05 09:21 | 21.37644 | 39.38421 | 2943 ft | 258 kts | 195° |
| 2026-05-05 09:21 | 21.36075 | 39.37441 | 2931 ft | 266 kts | 226° |
| 2026-05-05 09:22 | 21.35163 | 39.35733 | 2928 ft | 267 kts | 256° |
| 2026-05-05 09:22 | 21.35156 | 39.33771 | 2911 ft | 264 kts | 286° |
| 2026-05-05 09:22 | 21.36030 | 39.32115 | 2919 ft | 260 kts | 316° |
| 2026-05-05 09:22 | 21.37591 | 39.31139 | 2910 ft | 256 kts | 348° |
| 2026-05-05 09:23 | 21.39335 | 39.31047 | 2980 ft | 251 kts | 0° |
| 2026-05-05 09:23 | 21.41127 | 39.30999 | 2934 ft | 261 kts | 359° |
| 2026-05-05 09:23 | 21.42863 | 39.30610 | 2938 ft | 261 kts | 335° |
| 2026-05-05 09:23 | 21.44289 | 39.29447 | 2931 ft | 262 kts | 316° |
| 2026-05-05 09:24 | 21.45553 | 39.28020 | 2780 ft | 263 kts | 313° |
| 2026-05-05 09:24 | 21.46765 | 39.26586 | 2674 ft | 253 kts | 314° |
| 2026-05-05 09:24 | 21.48094 | 39.25524 | 2522 ft | 232 kts | 334° |
| 2026-05-05 09:24 | 21.49480 | 39.24859 | 2416 ft | 207 kts | 339° |
| 2026-05-05 09:25 | 21.50766 | 39.24324 | 2127 ft | 192 kts | 340° |
| 2026-05-05 09:25 | 21.51977 | 39.23845 | 1991 ft | 185 kts | 341° |
| 2026-05-05 09:25 | 21.53195 | 39.23364 | 1979 ft | 187 kts | 341° |
| 2026-05-05 09:25 | 21.54409 | 39.22885 | 1921 ft | 183 kts | 341° |
| 2026-05-05 09:26 | 21.55591 | 39.22418 | 1919 ft | 180 kts | 341° |
| 2026-05-05 09:26 | 21.56781 | 39.21949 | 1932 ft | 183 kts | 341° |
| 2026-05-05 09:26 | 21.57973 | 39.21479 | 1893 ft | 184 kts | 341° |
| 2026-05-05 09:26 | 21.59187 | 39.20999 | 1631 ft | 184 kts | 341° |
| 2026-05-05 09:27 | 21.60364 | 39.20533 | 1379 ft | 180 kts | 341° |
| 2026-05-05 09:27 | 21.61535 | 39.20070 | 1155 ft | 179 kts | 341° |
| 2026-05-05 09:27 | 21.62711 | 39.19606 | 920 ft | 180 kts | 340° |
| 2026-05-05 09:27 | 21.63880 | 39.19144 | 672 ft | 178 kts | 340° |
| 2026-05-05 09:28 | 21.65045 | 39.18682 | 428 ft | 178 kts | 340° |
| 2026-05-05 09:28 | 21.66208 | 39.18221 | 151 ft | 177 kts | 340° |
| 2026-05-05 09:28 | 21.67350 | 39.17769 | 48 ft | 169 kts | 340° |
| 2026-05-05 09:28 | 21.68369 | 39.17366 | 31 ft | 136 kts | 332° |
| 2026-05-05 09:29 | 21.68939 | 39.17135 | 35 ft | 65 kts | 341° |
| 2026-05-05 09:29 | 21.69284 | 39.16997 | 39 ft | 36 kts | 342° |
| 2026-05-05 09:29 | 21.69406 | 39.16911 | 35 ft | 12 kts | 279° |
| 2026-05-05 09:29 | 21.69404 | 39.16871 | 35 ft | 0 kts | 254° |
| 2026-05-05 09:31 | 21.69401 | 39.16863 | 35 ft | 2 kts | 247° |
| 2026-05-05 09:31 | 21.69398 | 39.16858 | 34 ft | 0 kts | 242° |
| 2026-05-05 09:31 | 21.69398 | 39.16857 | 34 ft | 1 kts | 246° |
| 2026-05-05 09:32 | 21.69392 | 39.16840 | 34 ft | 4 kts | 249° |
| 2026-05-05 09:32 | 21.69381 | 39.16802 | 33 ft | 7 kts | 254° |
| 2026-05-05 09:32 | 21.69362 | 39.16734 | 29 ft | 13 kts | 253° |
| 2026-05-05 09:32 | 21.69325 | 39.16623 | 27 ft | 17 kts | 249° |
| 2026-05-05 09:33 | 21.69283 | 39.16501 | 26 ft | 18 kts | 245° |
| 2026-05-05 09:33 | 21.69241 | 39.16375 | 27 ft | 18 kts | 252° |
| 2026-05-05 09:33 | 21.69196 | 39.16252 | 23 ft | 18 kts | 248° |
| 2026-05-05 09:33 | 21.69150 | 39.16127 | 25 ft | 18 kts | 249° |
| 2026-05-05 09:34 | 21.69116 | 39.15995 | 25 ft | 19 kts | 253° |
| 2026-05-05 09:34 | 21.69066 | 39.15865 | 26 ft | 19 kts | 245° |
| 2026-05-05 09:34 | 21.69020 | 39.15733 | 28 ft | 19 kts | 251° |
| 2026-05-05 09:34 | 21.68930 | 39.15682 | 36 ft | 16 kts | 168° |
| 2026-05-05 09:35 | 21.68826 | 39.15720 | 36 ft | 16 kts | 161° |
| 2026-05-05 09:35 | 21.68609 | 39.15809 | 37 ft | 17 kts | 159° |
| 2026-05-05 09:35 | 21.68499 | 39.15850 | 37 ft | 17 kts | 158° |
| 2026-05-05 09:36 | 21.68388 | 39.15890 | 38 ft | 17 kts | 158° |
| 2026-05-05 09:36 | 21.68280 | 39.15936 | 39 ft | 17 kts | 162° |
| 2026-05-05 09:36 | 21.68172 | 39.15985 | 38 ft | 18 kts | 153° |
| 2026-05-05 09:36 | 21.68055 | 39.16032 | 37 ft | 18 kts | 161° |
| 2026-05-05 09:37 | 21.67935 | 39.16071 | 39 ft | 18 kts | 163° |
| 2026-05-05 09:37 | 21.67815 | 39.16118 | 37 ft | 19 kts | 162° |
| 2026-05-05 09:37 | 21.67699 | 39.16164 | 35 ft | 11 kts | 161° |
| 2026-05-05 09:37 | 21.67666 | 39.16177 | 35 ft | 4 kts | 159° |
| 2026-05-05 09:38 | 21.67639 | 39.16189 | 35 ft | 5 kts | 156° |
| 2026-05-05 09:38 | 21.67603 | 39.16204 | 35 ft | 6 kts | 161° |
| 2026-05-05 09:38 | 21.67516 | 39.16238 | 35 ft | 27 kts | 159° |
| 2026-05-05 09:38 | 21.67343 | 39.16306 | 35 ft | 20 kts | 160° |
| 2026-05-05 09:39 | 21.67213 | 39.16354 | 35 ft | 20 kts | 161° |
| 2026-05-05 09:39 | 21.67084 | 39.16398 | 36 ft | 20 kts | 172° |
| 2026-05-05 09:39 | 21.66953 | 39.16449 | 36 ft | 20 kts | 155° |
| 2026-05-05 09:39 | 21.66828 | 39.16504 | 36 ft | 20 kts | 155° |
| 2026-05-05 09:40 | 21.66703 | 39.16557 | 36 ft | 13 kts | 158° |
| 2026-05-05 09:40 | 21.66657 | 39.16605 | 36 ft | 10 kts | 105° |
| 2026-05-05 09:40 | 21.66660 | 39.16682 | 35 ft | 11 kts | 79° |
| 2026-05-05 09:40 | 21.66685 | 39.16768 | 35 ft | 13 kts | 69° |
| 2026-05-05 09:41 | 21.66713 | 39.16856 | 35 ft | 12 kts | 77° |
| 2026-05-05 09:41 | 21.66670 | 39.16925 | 35 ft | 12 kts | 153° |
| 2026-05-05 09:41 | 21.66630 | 39.16969 | 35 ft | 8 kts | 94° |
| 2026-05-05 09:41 | 21.66638 | 39.17013 | 35 ft | 2 kts | 72° |
| 2026-05-05 09:42 | 21.66643 | 39.17029 | 35 ft | 2 kts | 72° |
| 2026-05-05 09:42 | 21.66647 | 39.17043 | 35 ft | 0 kts | 71° |
| 2026-05-05 09:42 | 21.66648 | 39.17046 | 35 ft | 0 kts | 71° |